Time;durP1;ratioP1;P1;durP2;ratioP2;P2;SDS_P1;SDS_P2;PMS_P1;PMS_P2;Temp;Humidity;BMP_temperature;BMP_pressure;BME280_temperature;BME280_humidity;BME280_pressure;Samples;Min_cycle;Max_cycle;Signal;HPM_P1;HPM_P2
2022/07/28 00:00:26;;;;;;;1.20;1.10;;;24.90;44.60;;;;;;5067659;28;20897;-61
2022/07/28 00:02:52;;;;;;;1.23;1.13;;;24.90;44.60;;;;;;5061816;28;20192;-74
2022/07/28 00:05:19;;;;;;;1.30;1.20;;;24.90;44.70;;;;;;5065495;28;20860;-60
2022/07/28 00:07:45;;;;;;;1.20;1.10;;;24.90;44.70;;;;;;5067821;28;20173;-72
2022/07/28 00:10:12;;;;;;;1.10;1.00;;;24.90;44.70;;;;;;5061239;28;21358;-67
2022/07/28 00:12:38;;;;;;;1.30;1.20;;;24.90;44.70;;;;;;5064494;28;20212;-72
2022/07/28 00:15:05;;;;;;;1.20;1.10;;;24.90;44.70;;;;;;5059334;28;20496;-65
2022/07/28 00:17:32;;;;;;;1.13;1.03;;;24.90;44.80;;;;;;5070379;28;22412;-60
2022/07/28 00:19:57;;;;;;;1.17;1.07;;;24.90;44.80;;;;;;5061758;28;20576;-70
2022/07/28 00:22:23;;;;;;;1.20;1.10;;;24.90;44.80;;;;;;5059071;28;20447;-69
2022/07/28 00:24:49;;;;;;;1.97;1.10;;;24.90;44.80;;;;;;5062421;28;20215;-62
2022/07/28 00:27:15;;;;;;;1.33;1.23;;;24.90;44.90;;;;;;5068509;28;20177;-65
2022/07/28 00:29:42;;;;;;;1.40;1.30;;;24.90;44.90;;;;;;5065003;28;20208;-66
2022/07/28 00:32:08;;;;;;;1.00;1.00;;;24.90;44.90;;;;;;5078293;28;20525;-62
2022/07/28 00:34:34;;;;;;;1.33;1.23;;;24.90;44.90;;;;;;5070906;28;21003;-76
2022/07/28 00:37:00;;;;;;;1.23;1.13;;;24.90;45.00;;;;;;5066698;28;20666;-71
2022/07/28 00:39:26;;;;;;;1.30;1.20;;;24.90;44.90;;;;;;5061643;28;20776;-75
2022/07/28 00:41:52;;;;;;;1.20;1.10;;;24.90;44.90;;;;;;5066439;28;20308;-78
2022/07/28 00:44:18;;;;;;;1.20;1.10;;;24.90;44.90;;;;;;5061474;28;20521;-66
2022/07/28 00:46:44;;;;;;;1.40;1.30;;;24.90;44.90;;;;;;5067440;28;20463;-60
2022/07/28 00:49:14;;;;;;;1.53;1.10;;;24.90;45.00;;;;;;5068677;28;20547;-75
2022/07/28 00:51:40;;;;;;;1.43;1.33;;;24.90;45.00;;;;;;5060302;28;20197;-75
2022/07/28 00:54:06;;;;;;;1.30;1.20;;;24.90;45.00;;;;;;5059406;28;20430;-67
2022/07/28 00:56:33;;;;;;;1.30;1.20;;;24.90;45.80;;;;;;5059911;28;20434;-66
2022/07/28 00:58:59;;;;;;;1.20;1.10;;;24.90;45.00;;;;;;5059789;28;20180;-60
2022/07/28 01:01:25;;;;;;;1.03;1.03;;;24.90;45.00;;;;;;5068951;28;20792;-60
2022/07/28 01:04:00;;;;;;;1.10;1.00;;;24.90;45.00;;;;;;5072075;28;20259;-78
2022/07/28 01:06:51;;;;;;;1.23;1.13;;;24.90;45.10;;;;;;5066720;28;20428;-62
2022/07/28 01:09:39;;;;;;;1.30;1.20;;;24.90;45.00;;;;;;5063869;28;20516;-63
2022/07/28 01:12:25;;;;;;;1.20;1.10;;;24.90;45.00;;;;;;5064389;28;20805;-67
2022/07/28 01:15:18;;;;;;;0.97;0.97;;;24.90;45.10;;;;;;5062826;28;20487;-62
2022/07/28 01:18:00;;;;;;;1.50;1.40;;;24.90;45.10;;;;;;5058665;28;20830;-66
2022/07/28 01:20:40;;;;;;;1.23;0.93;;;24.80;45.10;;;;;;5067510;28;20956;-59
2022/07/28 01:23:30;;;;;;;1.30;1.20;;;24.80;45.10;;;;;;5058991;28;20429;-64
2022/07/28 01:26:33;;;;;;;1.50;1.40;;;24.80;45.10;;;;;;5063965;28;20421;-60
2022/07/28 01:29:17;;;;;;;1.30;1.20;;;24.90;45.10;;;;;;5061925;28;20426;-66
2022/07/28 01:31:48;;;;;;;0.93;0.93;;;24.80;45.10;;;;;;5066223;28;21646;-59
2022/07/28 01:34:18;;;;;;;1.30;1.20;;;24.80;45.20;;;;;;5070581;28;20516;-62
2022/07/28 01:36:52;;;;;;;2.03;1.00;;;24.80;45.10;;;;;;5058585;28;20529;-71
2022/07/28 01:39:19;;;;;;;1.10;1.00;;;24.80;45.20;;;;;;5060482;28;20433;-62
2022/07/28 01:41:48;;;;;;;1.17;1.07;;;24.80;45.20;;;;;;5060214;28;20592;-76
2022/07/28 01:44:19;;;;;;;1.40;1.00;;;24.80;45.20;;;;;;5060258;28;20466;-69
2022/07/28 01:46:46;;;;;;;1.30;1.20;;;24.80;45.20;;;;;;5064941;28;20426;-74
2022/07/28 01:49:13;;;;;;;1.10;1.00;;;24.80;45.20;;;;;;5069659;28;20449;-61
2022/07/28 01:51:41;;;;;;;1.10;1.00;;;24.80;45.20;;;;;;5061786;28;20551;-73
2022/07/28 01:54:09;;;;;;;1.17;1.10;;;24.80;45.10;;;;;;5064090;28;21477;-61
2022/07/28 01:56:38;;;;;;;1.00;0.93;;;24.80;45.20;;;;;;5059783;28;20507;-59
2022/07/28 01:59:08;;;;;;;1.20;1.10;;;24.80;45.20;;;;;;5059636;28;20485;-70
2022/07/28 02:01:35;;;;;;;1.30;1.20;;;24.80;45.20;;;;;;5069078;28;20434;-60
2022/07/28 02:04:04;;;;;;;1.40;1.30;;;24.80;45.20;;;;;;5062193;28;20434;-59
2022/07/28 02:06:32;;;;;;;1.10;1.00;;;24.80;45.20;;;;;;5069727;28;20488;-64
2022/07/28 02:09:01;;;;;;;1.30;1.20;;;24.80;45.20;;;;;;5062815;28;20443;-74
2022/07/28 02:11:41;;;;;;;0.83;0.83;;;24.80;45.20;;;;;;5059776;28;20465;-61
2022/07/28 02:14:15;;;;;;;1.00;0.90;;;24.80;45.30;;;;;;5061635;28;20433;-61
2022/07/28 02:16:47;;;;;;;0.93;0.90;;;24.80;45.20;;;;;;5060362;28;20560;-61
2022/07/28 02:19:13;;;;;;;1.13;1.03;;;24.80;45.30;;;;;;5059739;28;20431;-68
2022/07/28 02:21:41;;;;;;;3.37;1.67;;;24.80;45.20;;;;;;5070547;28;20480;-73
2022/07/28 02:24:09;;;;;;;1.07;0.97;;;24.80;46.00;;;;;;5065318;28;20424;-62
2022/07/28 02:26:40;;;;;;;0.93;0.93;;;24.80;45.40;;;;;;5058473;28;20441;-69
2022/07/28 02:29:09;;;;;;;1.10;1.00;;;24.80;45.30;;;;;;5061202;28;20429;-62
2022/07/28 02:31:50;;;;;;;1.10;1.00;;;24.80;45.30;;;;;;5062920;28;20885;-61
2022/07/28 02:34:17;;;;;;;1.00;1.00;;;24.80;45.30;;;;;;5062391;28;20438;-62
2022/07/28 02:36:49;;;;;;;1.07;0.97;;;24.80;45.40;;;;;;5066419;28;20428;-65
2022/07/28 02:39:21;;;;;;;1.10;1.00;;;24.80;45.30;;;;;;5057534;28;20437;-61
2022/07/28 02:41:54;;;;;;;0.97;0.90;;;24.80;45.30;;;;;;5059190;28;20433;-66
2022/07/28 02:44:25;;;;;;;1.13;1.03;;;24.80;45.30;;;;;;5056068;28;20426;-73
2022/07/28 02:46:53;;;;;;;1.07;0.93;;;24.80;45.30;;;;;;5061862;28;20490;-62
2022/07/28 02:49:24;;;;;;;0.90;0.90;;;24.80;45.30;;;;;;5066669;28;20452;-63
2022/07/28 02:51:52;;;;;;;1.03;0.93;;;24.80;45.30;;;;;;5064104;28;20950;-63
2022/07/28 02:54:20;;;;;;;1.13;1.03;;;24.80;45.30;;;;;;5062773;28;20491;-66
2022/07/28 02:56:49;;;;;;;1.00;1.00;;;24.80;45.30;;;;;;5058852;28;20413;-60
2022/07/28 02:59:18;;;;;;;1.20;1.10;;;24.80;45.30;;;;;;5057031;28;21780;-65
2022/07/28 03:01:45;;;;;;;1.00;1.00;;;24.80;45.30;;;;;;5063816;28;20433;-62
2022/07/28 03:04:12;;;;;;;0.87;0.87;;;24.80;45.30;;;;;;5064538;28;20501;-69
2022/07/28 03:06:39;;;;;;;1.10;1.00;;;24.90;45.40;;;;;;5068535;28;20436;-59
2022/07/28 03:09:06;;;;;;;1.10;1.00;;;24.80;45.30;;;;;;5061178;28;20621;-76
2022/07/28 03:11:32;;;;;;;1.20;1.10;;;24.80;45.40;;;;;;5062492;28;20461;-73
2022/07/28 03:13:58;;;;;;;0.90;0.90;;;24.80;45.40;;;;;;5061992;28;20434;-64
2022/07/28 03:16:24;;;;;;;1.10;1.00;;;24.80;45.40;;;;;;5062023;28;20199;-62
2022/07/28 03:18:50;;;;;;;1.10;1.00;;;24.80;45.40;;;;;;5060899;28;20438;-62
2022/07/28 03:21:16;;;;;;;1.20;1.10;;;24.80;45.40;;;;;;5066322;28;20256;-75
2022/07/28 03:23:48;;;;;;;0.90;0.90;;;24.80;45.40;;;;;;5061609;28;20239;-59
2022/07/28 03:26:40;;;;;;;0.90;0.90;;;24.80;45.40;;;;;;5059370;28;20697;-67
2022/07/28 03:29:07;;;;;;;1.17;1.07;;;24.80;45.40;;;;;;5062822;28;20826;-63
2022/07/28 03:31:36;;;;;;;1.07;1.03;;;24.80;45.40;;;;;;5057478;28;20500;-59
2022/07/28 03:34:03;;;;;;;0.90;0.90;;;24.80;45.40;;;;;;5059887;28;20500;-74
2022/07/28 03:36:35;;;;;;;0.80;0.80;;;24.80;45.40;;;;;;5065808;28;21231;-61
2022/07/28 03:39:03;;;;;;;0.70;0.70;;;24.80;45.50;;;;;;5057900;28;20926;-61
2022/07/28 03:41:31;;;;;;;1.03;0.93;;;24.80;45.40;;;;;;5056814;28;20503;-59
2022/07/28 03:43:58;;;;;;;0.87;0.87;;;24.80;45.40;;;;;;5058274;28;20470;-75
2022/07/28 03:46:25;;;;;;;1.10;1.00;;;24.80;45.40;;;;;;5063101;28;20444;-77
2022/07/28 03:48:51;;;;;;;1.00;0.90;;;24.80;45.40;;;;;;5058011;28;20426;-62
2022/07/28 03:51:17;;;;;;;0.93;0.93;;;24.80;45.40;;;;;;5062681;28;20467;-62
2022/07/28 03:53:43;;;;;;;1.00;0.90;;;24.80;45.40;;;;;;5063604;28;20279;-75
2022/07/28 03:56:09;;;;;;;1.20;1.10;;;24.80;45.40;;;;;;5059077;28;20182;-67
2022/07/28 03:58:35;;;;;;;0.90;0.90;;;24.80;45.40;;;;;;5059425;28;22598;-61
2022/07/28 04:01:00;;;;;;;0.80;0.80;;;24.80;45.40;;;;;;5062596;28;21227;-60
2022/07/28 04:03:26;;;;;;;1.00;0.90;;;24.80;46.20;;;;;;5060848;28;20255;-59
2022/07/28 04:05:54;;;;;;;1.10;1.00;;;24.80;45.50;;;;;;5061409;28;20188;-64
2022/07/28 04:08:20;;;;;;;1.10;1.00;;;24.80;45.40;;;;;;5068919;28;21041;-65
2022/07/28 04:10:45;;;;;;;1.10;1.00;;;24.80;45.40;;;;;;5057990;28;20466;-77
2022/07/28 04:13:11;;;;;;;1.20;1.10;;;24.80;45.40;;;;;;5058848;28;20190;-67
2022/07/28 04:15:37;;;;;;;0.90;0.90;;;24.80;45.40;;;;;;5057658;28;20212;-59
2022/07/28 04:18:03;;;;;;;0.97;0.97;;;24.80;45.50;;;;;;5063400;28;20193;-61
2022/07/28 04:20:28;;;;;;;1.00;0.90;;;24.80;45.40;;;;;;5063922;28;20265;-76
2022/07/28 04:22:55;;;;;;;1.00;1.00;;;24.80;46.20;;;;;;5068857;28;20181;-63
2022/07/28 04:25:23;;;;;;;1.10;1.00;;;24.80;45.50;;;;;;5064963;28;20193;-59
2022/07/28 04:27:49;;;;;;;1.13;1.03;;;24.80;45.60;;;;;;5069263;28;20460;-61
2022/07/28 04:30:17;;;;;;;0.97;0.97;;;24.80;45.50;;;;;;5060886;28;20503;-72
2022/07/28 04:32:44;;;;;;;1.10;1.00;;;24.80;45.50;;;;;;5057877;28;21599;-61
2022/07/28 04:35:10;;;;;;;0.70;0.70;;;24.80;45.50;;;;;;5063277;28;20562;-65
2022/07/28 04:37:36;;;;;;;1.03;1.00;;;24.80;45.50;;;;;;5060120;28;20442;-72
2022/07/28 04:40:04;;;;;;;1.10;1.03;;;24.80;45.50;;;;;;5069079;28;20512;-67
2022/07/28 04:42:30;;;;;;;1.00;1.00;;;24.80;45.50;;;;;;5059775;28;20970;-77
2022/07/28 04:44:56;;;;;;;0.90;0.90;;;24.80;45.60;;;;;;5060486;28;20426;-60
2022/07/28 04:47:23;;;;;;;0.80;0.80;;;24.80;45.80;;;;;;5056760;28;20180;-63
2022/07/28 04:49:49;;;;;;;0.90;0.90;;;24.80;45.50;;;;;;5066097;28;20204;-70
2022/07/28 04:52:14;;;;;;;0.90;0.90;;;24.80;45.50;;;;;;5059636;28;20486;-71
2022/07/28 04:54:40;;;;;;;0.90;0.90;;;24.80;45.50;;;;;;5067172;28;20192;-82
2022/07/28 04:57:06;;;;;;;0.80;0.80;;;24.80;45.50;;;;;;5061637;28;20223;-62
2022/07/28 04:59:34;;;;;;;1.17;1.07;;;24.80;45.40;;;;;;5059653;28;20188;-71
2022/07/28 05:02:00;;;;;;;1.10;1.00;;;24.80;45.40;;;;;;5061810;28;20613;-81
2022/07/28 05:04:25;;;;;;;0.80;0.80;;;24.80;45.50;;;;;;5058694;28;21832;-64
2022/07/28 05:06:51;;;;;;;1.10;1.00;;;24.80;45.40;;;;;;5059021;28;22213;-79
2022/07/28 05:09:17;;;;;;;0.90;0.90;;;24.80;45.50;;;;;;5068987;28;20180;-81
2022/07/28 05:11:43;;;;;;;1.00;1.00;;;24.80;45.40;;;;;;5064528;28;20255;-61
2022/07/28 05:14:09;;;;;;;1.17;1.07;;;24.80;45.50;;;;;;5069747;28;20219;-62
2022/07/28 05:16:35;;;;;;;1.10;1.00;;;24.80;45.40;;;;;;5064058;28;20832;-62
2022/07/28 05:19:01;;;;;;;1.10;1.00;;;24.80;45.50;;;;;;5065022;28;20200;-66
2022/07/28 05:21:27;;;;;;;1.10;1.00;;;24.80;45.40;;;;;;5067083;28;20659;-62
2022/07/28 05:23:53;;;;;;;0.90;0.90;;;24.80;45.50;;;;;;5065771;28;20307;-60
2022/07/28 05:26:19;;;;;;;1.03;0.93;;;24.80;45.50;;;;;;5073875;28;20445;-81
2022/07/28 05:28:44;;;;;;;1.23;1.00;;;24.80;45.50;;;;;;5067018;28;20188;-66
2022/07/28 05:31:10;;;;;;;1.00;1.00;;;24.80;46.30;;;;;;5063287;28;22868;-63
2022/07/28 05:33:37;;;;;;;1.00;0.90;;;24.80;45.50;;;;;;5067790;28;20192;-62
2022/07/28 05:36:03;;;;;;;0.90;0.90;;;24.80;45.50;;;;;;5069938;28;20173;-65
2022/07/28 05:38:31;;;;;;;1.20;1.10;;;24.80;45.40;;;;;;5065926;28;20422;-62
2022/07/28 05:40:57;;;;;;;1.00;1.00;;;24.80;45.50;;;;;;5073603;28;20432;-61
2022/07/28 05:43:23;;;;;;;1.10;1.00;;;24.90;45.50;;;;;;5067605;28;20438;-67
2022/07/28 05:45:49;;;;;;;0.90;0.90;;;24.90;45.50;;;;;;5066510;28;20429;-72
2022/07/28 05:48:18;;;;;;;0.90;0.90;;;24.90;45.50;;;;;;5062802;28;20319;-71
2022/07/28 05:50:45;;;;;;;1.00;1.00;;;24.90;45.40;;;;;;5068940;28;20216;-81
2022/07/28 05:53:11;;;;;;;1.03;1.00;;;24.90;45.40;;;;;;5074664;28;20792;-68
2022/07/28 05:55:36;;;;;;;0.97;0.90;;;25.00;45.40;;;;;;5068531;28;20434;-61
2022/07/28 05:58:02;;;;;;;0.87;0.87;;;25.00;45.50;;;;;;5069509;28;20640;-64
2022/07/28 06:00:32;;;;;;;0.70;0.70;;;25.00;45.50;;;;;;5071531;28;20280;-60
2022/07/28 06:03:00;;;;;;;0.87;0.87;;;25.00;45.50;;;;;;5071354;28;20173;-66
2022/07/28 06:05:27;;;;;;;1.70;1.13;;;25.00;45.50;;;;;;5071380;28;20425;-59
2022/07/28 06:07:53;;;;;;;1.70;1.30;;;25.00;44.50;;;;;;5067777;28;20470;-75
2022/07/28 06:10:20;;;;;;;1.20;1.10;;;25.00;43.50;;;;;;5066259;28;20453;-64
2022/07/28 06:12:48;;;;;;;1.23;1.10;;;25.00;43.50;;;;;;5073431;28;20185;-69
2022/07/28 06:15:16;;;;;;;0.97;0.90;;;25.00;42.60;;;;;;5067261;28;20972;-83
2022/07/28 06:17:42;;;;;;;1.20;1.00;;;25.00;42.50;;;;;;5048285;28;20437;-61
2022/07/28 06:20:08;;;;;;;1.00;1.00;;;25.00;42.50;;;;;;5053686;28;20474;-76
2022/07/28 06:22:45;;;;;;;1.07;0.97;;;25.00;42.70;;;;;;5069757;28;20651;-68
2022/07/28 06:25:16;;;;;;;0.97;0.90;;;25.00;42.80;;;;;;5062253;28;20448;-73
2022/07/28 06:27:47;;;;;;;1.10;1.00;;;25.00;43.10;;;;;;5073262;28;20416;-63
2022/07/28 06:30:13;;;;;;;1.67;0.90;;;25.00;43.30;;;;;;5063583;28;20890;-78
2022/07/28 06:32:39;;;;;;;0.97;0.80;;;25.00;43.60;;;;;;5062277;28;21005;-62
2022/07/28 06:35:05;;;;;;;0.80;0.80;;;25.00;43.50;;;;;;5065612;28;20437;-80
2022/07/28 06:37:31;;;;;;;1.03;0.93;;;25.00;43.60;;;;;;5056638;28;20660;-74
2022/07/28 06:39:57;;;;;;;1.10;1.00;;;25.00;43.60;;;;;;5062001;28;20448;-62
2022/07/28 06:42:23;;;;;;;1.63;1.53;;;25.00;43.50;;;;;;5063993;28;20632;-73
2022/07/28 06:44:52;;;;;;;0.80;0.80;;;25.00;43.60;;;;;;5063421;28;20272;-60
2022/07/28 06:47:18;;;;;;;1.00;0.90;;;25.00;43.60;;;;;;5060525;28;20189;-62
2022/07/28 06:49:44;;;;;;;0.80;0.80;;;25.00;43.60;;;;;;5062191;28;20478;-68
2022/07/28 06:52:10;;;;;;;1.20;1.10;;;25.00;43.70;;;;;;5060320;28;21861;-73
2022/07/28 06:54:36;;;;;;;1.13;1.03;;;25.00;44.00;;;;;;5060635;28;20605;-76
2022/07/28 06:57:02;;;;;;;0.97;0.97;;;25.00;44.10;;;;;;5064836;28;20239;-60
2022/07/28 06:59:28;;;;;;;0.90;0.90;;;25.00;44.10;;;;;;5067657;28;20754;-66
2022/07/28 07:02:00;;;;;;;1.10;1.00;;;25.00;44.20;;;;;;5062768;28;20931;-69
2022/07/28 07:04:28;;;;;;;0.80;0.80;;;25.00;44.30;;;;;;5056485;28;20966;-75
2022/07/28 07:06:54;;;;;;;0.97;0.90;;;25.00;44.30;;;;;;5059426;28;20912;-66
2022/07/28 07:09:20;;;;;;;0.90;0.90;;;25.00;44.40;;;;;;5064710;28;20452;-60
2022/07/28 07:11:45;;;;;;;1.00;0.90;;;25.00;44.40;;;;;;5060439;28;20219;-70
2022/07/28 07:14:11;;;;;;;0.83;0.83;;;25.00;44.40;;;;;;5066624;28;20639;-62
2022/07/28 07:16:37;;;;;;;1.00;1.00;;;25.00;44.50;;;;;;5063387;28;20193;-80
2022/07/28 07:19:03;;;;;;;1.20;1.10;;;25.00;44.50;;;;;;5063565;28;20216;-62
2022/07/28 07:21:29;;;;;;;1.10;1.00;;;25.00;44.50;;;;;;5064255;28;20351;-78
2022/07/28 07:23:55;;;;;;;0.90;0.90;;;25.00;44.60;;;;;;5067338;28;21213;-60
2022/07/28 07:26:20;;;;;;;0.90;0.90;;;25.00;44.60;;;;;;5062907;28;20189;-64
2022/07/28 07:28:46;;;;;;;0.90;0.90;;;25.00;44.60;;;;;;5063484;28;20192;-74
2022/07/28 07:31:12;;;;;;;1.37;1.10;;;25.00;44.60;;;;;;5059523;28;20272;-78
2022/07/28 07:33:39;;;;;;;0.97;0.90;;;24.90;44.70;;;;;;5061422;28;20231;-77
2022/07/28 07:36:05;;;;;;;1.00;0.90;;;25.00;44.70;;;;;;5056616;28;21341;-65
2022/07/28 07:38:32;;;;;;;1.10;1.00;;;24.90;44.70;;;;;;5060463;28;20798;-67
2022/07/28 07:40:59;;;;;;;1.07;0.97;;;25.00;44.70;;;;;;5063791;28;20445;-67
2022/07/28 07:43:25;;;;;;;1.30;1.20;;;25.00;44.70;;;;;;5055022;28;20434;-60
2022/07/28 07:45:51;;;;;;;1.33;1.23;;;24.90;44.70;;;;;;5059757;28;20430;-66
2022/07/28 07:48:17;;;;;;;1.40;1.20;;;24.90;44.70;;;;;;5061478;28;20510;-65
2022/07/28 07:50:43;;;;;;;1.17;1.07;;;24.90;44.70;;;;;;5065801;28;20296;-76
2022/07/28 07:53:08;;;;;;;1.30;1.20;;;25.00;44.80;;;;;;5067173;28;20238;-72
2022/07/28 07:55:34;;;;;;;1.10;1.00;;;25.00;44.80;;;;;;5065410;28;20433;-61
2022/07/28 07:57:59;;;;;;;1.40;1.30;;;24.90;44.70;;;;;;5063219;28;20923;-61
2022/07/28 08:00:25;;;;;;;1.17;1.00;;;24.90;44.70;;;;;;5065254;28;22372;-69
2022/07/28 08:02:51;;;;;;;1.30;1.20;;;24.90;44.70;;;;;;5053121;28;20181;-68
2022/07/28 08:05:17;;;;;;;1.07;0.97;;;24.90;44.80;;;;;;5058047;28;20276;-71
2022/07/28 08:07:42;;;;;;;1.20;1.10;;;24.90;44.80;;;;;;5055232;28;20854;-71
2022/07/28 08:10:09;;;;;;;1.20;1.10;;;24.90;44.80;;;;;;5068007;28;20238;-75
2022/07/28 08:12:35;;;;;;;1.00;0.90;;;25.00;44.80;;;;;;5067135;28;20196;-61
2022/07/28 08:15:00;;;;;;;1.33;1.20;;;25.00;44.80;;;;;;5057961;28;20430;-77
2022/07/28 08:17:26;;;;;;;1.27;1.17;;;24.90;44.70;;;;;;5057006;28;20184;-68
2022/07/28 08:19:52;;;;;;;1.17;1.07;;;24.90;44.80;;;;;;5053930;28;20228;-68
2022/07/28 08:22:18;;;;;;;1.30;1.20;;;24.90;44.80;;;;;;5060529;28;20188;-66
2022/07/28 08:24:44;;;;;;;1.13;1.03;;;24.90;44.80;;;;;;5056284;28;20491;-71
2022/07/28 08:27:09;;;;;;;1.20;1.10;;;24.90;44.80;;;;;;5069069;28;20177;-61
2022/07/28 08:29:35;;;;;;;1.07;1.00;;;24.90;44.80;;;;;;5060291;28;20204;-81
2022/07/28 08:34:32;;;;;;;1.20;1.10;;;24.90;44.80;;;;;;5059817;28;20196;-66
2022/07/28 08:37:00;;;;;;;1.47;1.37;;;24.90;44.80;;;;;;5061377;28;20524;-80
2022/07/28 08:39:25;;;;;;;1.20;1.10;;;24.90;44.80;;;;;;5064523;28;20455;-60
2022/07/28 08:42:01;;;;;;;1.40;1.20;;;24.90;44.80;;;;;;5062961;28;20449;-60
2022/07/28 08:44:49;;;;;;;1.30;1.20;;;24.90;44.80;;;;;;5060704;28;20184;-64
2022/07/28 08:47:15;;;;;;;1.30;1.20;;;24.90;44.80;;;;;;5080024;28;20522;-63
2022/07/28 08:49:41;;;;;;;1.20;1.10;;;24.90;44.80;;;;;;5063969;28;20787;-62
2022/07/28 08:52:11;;;;;;;1.40;1.10;;;24.90;44.80;;;;;;5059145;28;20531;-65
2022/07/28 08:54:41;;;;;;;1.43;1.10;;;24.90;44.80;;;;;;5058283;28;20922;-65
2022/07/28 08:57:08;;;;;;;1.30;1.10;;;24.90;44.80;;;;;;5068531;28;20437;-64
2022/07/28 08:59:35;;;;;;;1.30;1.20;;;24.90;44.80;;;;;;5063879;28;20441;-60
2022/07/28 09:02:01;;;;;;;1.00;1.00;;;24.90;44.80;;;;;;5060629;28;20469;-65
2022/07/28 09:04:26;;;;;;;1.20;1.10;;;24.90;45.60;;;;;;5066977;28;20532;-81
2022/07/28 09:06:52;;;;;;;1.17;1.07;;;24.90;44.90;;;;;;5062566;28;20540;-62
2022/07/28 09:09:20;;;;;;;1.10;1.00;;;24.90;44.80;;;;;;5065584;28;20178;-77
2022/07/28 09:11:46;;;;;;;1.30;1.20;;;24.90;44.80;;;;;;5072907;28;20964;-71
2022/07/28 09:14:16;;;;;;;1.40;1.30;;;24.90;44.90;;;;;;5064904;28;20437;-68
2022/07/28 09:16:43;;;;;;;1.40;1.30;;;24.90;44.80;;;;;;5063714;28;20224;-60
2022/07/28 09:19:09;;;;;;;1.20;1.10;;;24.90;44.80;;;;;;5068155;28;20456;-70
2022/07/28 09:21:36;;;;;;;1.30;1.20;;;24.90;44.80;;;;;;5060574;28;20862;-62
2022/07/28 09:24:02;;;;;;;1.33;1.23;;;24.90;44.80;;;;;;5066086;28;20173;-79
2022/07/28 09:26:28;;;;;;;1.30;1.20;;;24.90;44.80;;;;;;5071959;28;20498;-67
2022/07/28 09:28:56;;;;;;;1.13;1.07;;;24.90;44.80;;;;;;5062016;28;20430;-77
2022/07/28 09:31:23;;;;;;;1.33;1.23;;;24.90;44.80;;;;;;5058198;28;20230;-70
2022/07/28 09:33:59;;;;;;;1.40;1.30;;;24.90;44.80;;;;;;5058862;28;20444;-64
2022/07/28 09:36:26;;;;;;;1.43;1.33;;;24.90;44.90;;;;;;5060987;28;20441;-61
2022/07/28 09:38:53;;;;;;;1.30;1.20;;;24.90;44.80;;;;;;5062540;28;20428;-68
2022/07/28 09:41:20;;;;;;;1.30;1.20;;;24.90;44.80;;;;;;5064733;28;21007;-66
2022/07/28 09:43:47;;;;;;;1.33;1.23;;;24.90;44.80;;;;;;5067041;28;20556;-67
2022/07/28 09:46:17;;;;;;;1.30;1.20;;;24.90;44.80;;;;;;5063089;28;20931;-70
2022/07/28 09:48:48;;;;;;;1.40;1.30;;;24.90;44.80;;;;;;5057503;28;20437;-75
2022/07/28 09:51:18;;;;;;;1.30;1.20;;;24.90;44.80;;;;;;5063741;28;20510;-67
2022/07/28 09:53:44;;;;;;;1.13;1.03;;;24.90;44.80;;;;;;5064925;28;20795;-79
2022/07/28 09:56:13;;;;;;;1.13;1.13;;;24.90;44.90;;;;;;5061099;28;20434;-72
2022/07/28 09:58:41;;;;;;;1.30;1.20;;;24.90;44.80;;;;;;5067550;28;20892;-66
2022/07/28 10:01:14;;;;;;;1.20;1.10;;;24.90;44.80;;;;;;5058069;28;20565;-62
2022/07/28 10:03:42;;;;;;;1.30;1.20;;;24.90;44.80;;;;;;5057780;28;20465;-65
2022/07/28 10:06:15;;;;;;;1.43;1.33;;;24.90;44.90;;;;;;5059974;28;22973;-64
2022/07/28 10:08:46;;;;;;;1.40;1.30;;;24.90;44.90;;;;;;5061686;28;20441;-59
2022/07/28 10:11:19;;;;;;;1.30;1.20;;;24.90;45.00;;;;;;5063219;28;21020;-66
2022/07/28 10:14:04;;;;;;;1.20;1.10;;;24.90;44.80;;;;;;5065290;28;20839;-80
2022/07/28 10:16:35;;;;;;;1.30;1.20;;;24.90;44.80;;;;;;5061024;28;20441;-68
2022/07/28 10:19:04;;;;;;;1.20;1.10;;;24.90;44.80;;;;;;5057460;28;20578;-81
2022/07/28 10:21:32;;;;;;;1.67;1.57;;;24.90;44.80;;;;;;5062699;28;20476;-70
2022/07/28 10:24:01;;;;;;;1.80;1.40;;;24.90;44.80;;;;;;5067304;28;20433;-67
2022/07/28 10:26:32;;;;;;;1.30;1.20;;;24.90;44.80;;;;;;5063070;28;20525;-60
2022/07/28 10:29:02;;;;;;;1.30;1.20;;;24.90;44.80;;;;;;5068454;28;21028;-73
2022/07/28 10:31:34;;;;;;;1.40;1.30;;;24.90;44.80;;;;;;5069870;28;20457;-65
2022/07/28 10:34:01;;;;;;;1.47;1.37;;;24.90;44.80;;;;;;5062707;28;20570;-64
2022/07/28 10:36:29;;;;;;;1.30;1.20;;;24.90;44.80;;;;;;5056257;28;20679;-76
2022/07/28 10:39:02;;;;;;;1.43;1.33;;;24.90;45.60;;;;;;5054951;28;20942;-69
2022/07/28 10:41:38;;;;;;;1.57;1.47;;;24.90;44.80;;;;;;5059296;28;20422;-66
2022/07/28 10:44:04;;;;;;;1.53;1.43;;;24.90;44.70;;;;;;5068032;28;20432;-73
2022/07/28 10:46:30;;;;;;;1.23;1.13;;;24.90;44.80;;;;;;5064760;28;20461;-65
2022/07/28 10:48:57;;;;;;;1.30;1.20;;;24.90;44.70;;;;;;5061565;28;20478;-61
2022/07/28 10:51:24;;;;;;;1.53;1.43;;;24.90;44.70;;;;;;5059487;28;22846;-78
2022/07/28 10:53:59;;;;;;;1.30;1.20;;;24.90;44.70;;;;;;5062048;28;20492;-79
2022/07/28 10:56:50;;;;;;;1.40;1.30;;;24.90;44.70;;;;;;5054450;28;20436;-59
2022/07/28 10:59:36;;;;;;;1.27;1.17;;;24.90;44.70;;;;;;5065859;28;20437;-61
2022/07/28 11:02:02;;;;;;;1.40;1.30;;;24.90;44.70;;;;;;5060415;28;20434;-71
2022/07/28 11:04:43;;;;;;;1.20;1.10;;;24.90;44.80;;;;;;5058894;28;20433;-61
2022/07/28 11:07:11;;;;;;;1.30;1.10;;;24.90;44.70;;;;;;5059501;28;20213;-73
2022/07/28 11:09:36;;;;;;;1.20;1.10;;;24.90;44.80;;;;;;5063088;28;20520;-60
2022/07/28 11:12:03;;;;;;;1.13;1.10;;;24.80;44.70;;;;;;5058630;28;22017;-67
2022/07/28 11:14:35;;;;;;;1.40;1.30;;;24.90;44.70;;;;;;5068909;28;20611;-69
2022/07/28 11:17:04;;;;;;;1.20;1.10;;;24.90;44.80;;;;;;5065079;28;20767;-61
2022/07/28 11:19:50;;;;;;;1.60;1.50;;;24.90;44.80;;;;;;5061996;28;20533;-73
2022/07/28 11:22:20;;;;;;;1.40;1.30;;;24.90;44.80;;;;;;5060495;28;21840;-62
2022/07/28 11:25:03;;;;;;;1.40;1.30;;;24.90;44.80;;;;;;5061258;28;20713;-69
2022/07/28 11:27:41;;;;;;;1.20;1.10;;;24.90;44.80;;;;;;5063049;28;20425;-80
2022/07/28 11:30:11;;;;;;;1.77;1.67;;;24.90;44.80;;;;;;5068071;28;20496;-63
2022/07/28 11:32:48;;;;;;;1.50;1.40;;;24.90;44.70;;;;;;5064695;28;20476;-64
2022/07/28 11:35:14;;;;;;;1.30;1.20;;;24.90;44.70;;;;;;5065348;28;20444;-78
2022/07/28 11:37:59;;;;;;;1.27;1.17;;;24.90;44.70;;;;;;5066782;28;20463;-76
2022/07/28 11:40:29;;;;;;;1.20;1.10;;;24.90;44.70;;;;;;5063074;28;20200;-64
2022/07/28 11:43:20;;;;;;;1.30;1.20;;;24.90;44.70;;;;;;5068572;28;20985;-62
2022/07/28 11:45:51;;;;;;;1.20;1.10;;;24.90;44.70;;;;;;5064410;28;20577;-76
2022/07/28 11:48:22;;;;;;;1.40;1.30;;;24.90;44.70;;;;;;5066041;28;20433;-63
2022/07/28 11:51:03;;;;;;;1.40;1.30;;;24.90;44.70;;;;;;5060668;28;20525;-75
2022/07/28 11:53:35;;;;;;;1.30;1.20;;;24.80;44.70;;;;;;5066662;28;21025;-68
2022/07/28 11:56:03;;;;;;;1.20;1.10;;;24.80;44.60;;;;;;5061963;28;20456;-65
2022/07/28 11:58:28;;;;;;;1.50;1.40;;;24.90;44.70;;;;;;5060416;28;20459;-72
2022/07/28 12:01:14;;;;;;;1.30;1.20;;;24.80;44.60;;;;;;5063990;28;23012;-66
2022/07/28 12:03:41;;;;;;;1.10;1.00;;;24.80;44.60;;;;;;5061742;28;20317;-79
2022/07/28 12:06:11;;;;;;;1.20;1.10;;;24.80;44.60;;;;;;5057834;28;20434;-64
2022/07/28 12:08:57;;;;;;;1.30;1.20;;;24.80;44.70;;;;;;5064264;28;20998;-63
2022/07/28 12:11:27;;;;;;;1.40;1.30;;;24.90;44.70;;;;;;5058483;28;20556;-72
2022/07/28 12:14:02;;;;;;;1.40;1.30;;;24.90;44.70;;;;;;5058870;28;20442;-66
2022/07/28 12:16:32;;;;;;;1.50;1.40;;;24.90;44.70;;;;;;5064438;28;20437;-72
2022/07/28 12:19:02;;;;;;;1.50;1.40;;;24.90;44.70;;;;;;5062396;28;20528;-63
2022/07/28 12:21:42;;;;;;;1.37;1.27;;;24.80;44.60;;;;;;5057050;28;20876;-71
2022/07/28 12:24:10;;;;;;;1.30;1.23;;;24.90;44.70;;;;;;5061024;28;20449;-72
2022/07/28 12:26:37;;;;;;;1.30;1.20;;;24.90;44.70;;;;;;5061501;28;21060;-60
2022/07/28 12:29:05;;;;;;;1.30;1.20;;;24.80;44.60;;;;;;5059962;28;21115;-74
2022/07/28 12:31:32;;;;;;;1.40;1.30;;;24.90;44.60;;;;;;5063158;28;20548;-64
2022/07/28 12:34:05;;;;;;;1.33;1.23;;;24.80;44.60;;;;;;5063946;28;20442;-62
2022/07/28 12:36:32;;;;;;;1.20;1.10;;;24.90;44.70;;;;;;5058575;28;20508;-68
2022/07/28 12:39:00;;;;;;;1.17;1.13;;;24.80;44.60;;;;;;5058016;28;20437;-67
2022/07/28 12:41:37;;;;;;;1.30;1.20;;;24.90;44.70;;;;;;5064781;28;20467;-69
2022/07/28 12:44:03;;;;;;;2.03;1.30;;;24.90;44.70;;;;;;5055445;28;20442;-78
2022/07/28 12:46:30;;;;;;;1.50;1.40;;;24.90;44.60;;;;;;5060689;28;20447;-77
2022/07/28 12:48:57;;;;;;;1.40;1.30;;;24.90;44.70;;;;;;5065574;28;20433;-70
2022/07/28 12:51:33;;;;;;;1.57;1.47;;;24.90;44.70;;;;;;5058745;28;20460;-72
2022/07/28 12:53:59;;;;;;;1.20;1.10;;;24.80;44.60;;;;;;5059623;28;20453;-78
2022/07/28 12:56:26;;;;;;;2.00;1.43;;;24.90;44.70;;;;;;5052170;28;20468;-79
2022/07/28 12:59:09;;;;;;;1.17;1.10;;;24.90;44.70;;;;;;5057834;28;20471;-60